Weather at Almirante Marco Andres Zar Airport

Public forecast

Using degrees Celsius for public forecast. Weather courtesy of forecast.io.

Closest aviation weather report (METAR) to Almirante Marco Andres Zar Airport

Closest report is General E. Mosconi Airport, 180.9 nm (335.1 km) SSW.

2024/05/28 22:00 (retrieved 12 minutes ago)

SAVC 282200Z 34011KT CAVOK 12/01 Q0998

Closest aviation forecast (TAF) to Almirante Marco Andres Zar Airport

Closest forecast is General E. Mosconi Airport, 180.9 nm (335.1 km) SSW.

2024/05/28 18:03 (retrieved 4 hours ago)

TAF TAF SAVC 281700Z 2818/2918 35010KT CAVOK TX14/2818Z TN08/2911Z TEMPO 2823/2902 9999 -DZ SCT030 OVC070 BECMG 2903/2905 29035G55KT 4000 BLDU NSC BECMG 2912/2914 27025G45KT 3000 BLDU NSC